sensor_id;sensor_type;location;lat;lon;timestamp;P1;durP1;ratioP1;P2;durP2;ratioP2
5569;SDS011;2808;51.240;6.794;2023-07-31T00:00:30;11.80;;;4.40;;
5569;SDS011;2808;51.240;6.794;2023-07-31T00:02:57;16.13;;;5.57;;
5569;SDS011;2808;51.240;6.794;2023-07-31T00:05:24;12.93;;;3.93;;
5569;SDS011;2808;51.240;6.794;2023-07-31T00:07:55;12.03;;;4.40;;
5569;SDS011;2808;51.240;6.794;2023-07-31T00:10:23;12.43;;;4.17;;
5569;SDS011;2808;51.240;6.794;2023-07-31T00:12:51;14.87;;;4.50;;
5569;SDS011;2808;51.240;6.794;2023-07-31T00:15:21;13.80;;;4.30;;
5569;SDS011;2808;51.240;6.794;2023-07-31T00:17:48;10.20;;;3.27;;
5569;SDS011;2808;51.240;6.794;2023-07-31T00:20:16;15.23;;;4.63;;
5569;SDS011;2808;51.240;6.794;2023-07-31T00:22:43;17.10;;;4.20;;
5569;SDS011;2808;51.240;6.794;2023-07-31T00:25:10;10.83;;;3.83;;
5569;SDS011;2808;51.240;6.794;2023-07-31T00:27:39;17.10;;;4.70;;
5569;SDS011;2808;51.240;6.794;2023-07-31T00:30:09;15.90;;;4.30;;
5569;SDS011;2808;51.240;6.794;2023-07-31T00:32:37;14.93;;;4.10;;
5569;SDS011;2808;51.240;6.794;2023-07-31T00:35:05;12.60;;;4.30;;
5569;SDS011;2808;51.240;6.794;2023-07-31T00:37:32;10.87;;;3.80;;
5569;SDS011;2808;51.240;6.794;2023-07-31T00:39:59;12.30;;;3.87;;
5569;SDS011;2808;51.240;6.794;2023-07-31T00:42:28;11.27;;;4.83;;
5569;SDS011;2808;51.240;6.794;2023-07-31T00:44:57;15.50;;;4.07;;
5569;SDS011;2808;51.240;6.794;2023-07-31T00:47:25;10.60;;;4.20;;
5569;SDS011;2808;51.240;6.794;2023-07-31T00:49:52;16.63;;;4.63;;
5569;SDS011;2808;51.240;6.794;2023-07-31T00:52:20;12.87;;;4.40;;
5569;SDS011;2808;51.240;6.794;2023-07-31T00:54:48;11.67;;;4.00;;
5569;SDS011;2808;51.240;6.794;2023-07-31T00:57:16;10.53;;;4.07;;
5569;SDS011;2808;51.240;6.794;2023-07-31T00:59:43;12.23;;;4.03;;
5569;SDS011;2808;51.240;6.794;2023-07-31T01:02:13;9.30;;;3.57;;
5569;SDS011;2808;51.240;6.794;2023-07-31T01:04:42;9.83;;;3.60;;
5569;SDS011;2808;51.240;6.794;2023-07-31T01:07:13;11.93;;;4.23;;
5569;SDS011;2808;51.240;6.794;2023-07-31T01:09:57;9.33;;;3.80;;
5569;SDS011;2808;51.240;6.794;2023-07-31T01:12:30;12.07;;;4.30;;
5569;SDS011;2808;51.240;6.794;2023-07-31T01:15:03;11.87;;;3.60;;
5569;SDS011;2808;51.240;6.794;2023-07-31T01:17:32;11.10;;;4.20;;
5569;SDS011;2808;51.240;6.794;2023-07-31T01:20:08;16.30;;;4.00;;
5569;SDS011;2808;51.240;6.794;2023-07-31T01:22:41;14.93;;;4.40;;
5569;SDS011;2808;51.240;6.794;2023-07-31T01:25:20;15.63;;;3.77;;
5569;SDS011;2808;51.240;6.794;2023-07-31T01:28:07;15.63;;;3.97;;
5569;SDS011;2808;51.240;6.794;2023-07-31T01:30:40;13.67;;;4.13;;
5569;SDS011;2808;51.240;6.794;2023-07-31T01:33:10;17.27;;;6.23;;
5569;SDS011;2808;51.240;6.794;2023-07-31T01:35:38;15.80;;;4.30;;
5569;SDS011;2808;51.240;6.794;2023-07-31T01:38:05;13.90;;;4.07;;
5569;SDS011;2808;51.240;6.794;2023-07-31T01:40:33;11.47;;;4.10;;
5569;SDS011;2808;51.240;6.794;2023-07-31T01:43:00;15.80;;;4.20;;
5569;SDS011;2808;51.240;6.794;2023-07-31T01:45:29;12.07;;;3.70;;
5569;SDS011;2808;51.240;6.794;2023-07-31T01:47:56;15.47;;;4.20;;
5569;SDS011;2808;51.240;6.794;2023-07-31T01:50:23;17.70;;;4.63;;
5569;SDS011;2808;51.240;6.794;2023-07-31T01:52:51;17.33;;;4.70;;
5569;SDS011;2808;51.240;6.794;2023-07-31T01:55:18;18.67;;;4.10;;
5569;SDS011;2808;51.240;6.794;2023-07-31T01:57:45;19.17;;;4.87;;
5569;SDS011;2808;51.240;6.794;2023-07-31T02:00:13;15.30;;;4.63;;
5569;SDS011;2808;51.240;6.794;2023-07-31T02:02:42;15.93;;;4.53;;
5569;SDS011;2808;51.240;6.794;2023-07-31T02:05:10;15.13;;;4.60;;
5569;SDS011;2808;51.240;6.794;2023-07-31T02:07:37;10.80;;;3.87;;
5569;SDS011;2808;51.240;6.794;2023-07-31T02:10:05;13.70;;;4.10;;
5569;SDS011;2808;51.240;6.794;2023-07-31T02:12:32;18.93;;;6.47;;
5569;SDS011;2808;51.240;6.794;2023-07-31T02:14:59;10.17;;;3.53;;
5569;SDS011;2808;51.240;6.794;2023-07-31T02:17:27;15.13;;;4.73;;
5569;SDS011;2808;51.240;6.794;2023-07-31T02:19:56;11.17;;;4.40;;
5569;SDS011;2808;51.240;6.794;2023-07-31T02:22:23;13.90;;;4.10;;
5569;SDS011;2808;51.240;6.794;2023-07-31T02:24:51;17.23;;;4.70;;
5569;SDS011;2808;51.240;6.794;2023-07-31T02:27:18;12.23;;;4.90;;
5569;SDS011;2808;51.240;6.794;2023-07-31T02:29:49;15.13;;;4.50;;
5569;SDS011;2808;51.240;6.794;2023-07-31T02:32:16;11.83;;;4.40;;
5569;SDS011;2808;51.240;6.794;2023-07-31T02:34:43;14.27;;;4.60;;
5569;SDS011;2808;51.240;6.794;2023-07-31T02:37:12;10.60;;;4.03;;
5569;SDS011;2808;51.240;6.794;2023-07-31T02:39:40;12.47;;;4.37;;
5569;SDS011;2808;51.240;6.794;2023-07-31T02:42:07;22.90;;;4.23;;
5569;SDS011;2808;51.240;6.794;2023-07-31T02:44:34;10.97;;;4.17;;
5569;SDS011;2808;51.240;6.794;2023-07-31T02:47:02;17.10;;;5.00;;
5569;SDS011;2808;51.240;6.794;2023-07-31T02:49:29;15.80;;;4.07;;
5569;SDS011;2808;51.240;6.794;2023-07-31T02:51:59;13.70;;;4.50;;
5569;SDS011;2808;51.240;6.794;2023-07-31T02:54:28;16.33;;;4.63;;
5569;SDS011;2808;51.240;6.794;2023-07-31T02:56:55;10.53;;;3.63;;
5569;SDS011;2808;51.240;6.794;2023-07-31T02:59:22;13.57;;;4.20;;
5569;SDS011;2808;51.240;6.794;2023-07-31T03:01:50;14.30;;;3.67;;
5569;SDS011;2808;51.240;6.794;2023-07-31T03:04:18;14.80;;;4.33;;
5569;SDS011;2808;51.240;6.794;2023-07-31T03:06:45;11.63;;;3.63;;
5569;SDS011;2808;51.240;6.794;2023-07-31T03:09:13;19.60;;;4.23;;
5569;SDS011;2808;51.240;6.794;2023-07-31T03:11:41;13.50;;;4.07;;
5569;SDS011;2808;51.240;6.794;2023-07-31T03:14:09;11.10;;;4.20;;
5569;SDS011;2808;51.240;6.794;2023-07-31T03:16:39;14.33;;;3.93;;
5569;SDS011;2808;51.240;6.794;2023-07-31T03:19:06;13.10;;;4.10;;
5569;SDS011;2808;51.240;6.794;2023-07-31T03:21:34;18.33;;;4.17;;
5569;SDS011;2808;51.240;6.794;2023-07-31T03:24:01;11.73;;;3.97;;
5569;SDS011;2808;51.240;6.794;2023-07-31T03:26:30;17.40;;;4.40;;
5569;SDS011;2808;51.240;6.794;2023-07-31T03:28:59;15.30;;;4.47;;
5569;SDS011;2808;51.240;6.794;2023-07-31T03:31:26;11.43;;;4.07;;
5569;SDS011;2808;51.240;6.794;2023-07-31T03:33:54;12.77;;;4.00;;
5569;SDS011;2808;51.240;6.794;2023-07-31T03:36:21;11.30;;;3.70;;
5569;SDS011;2808;51.240;6.794;2023-07-31T03:38:49;16.57;;;4.40;;
5569;SDS011;2808;51.240;6.794;2023-07-31T03:41:17;13.93;;;4.40;;
5569;SDS011;2808;51.240;6.794;2023-07-31T03:43:45;15.47;;;4.00;;
5569;SDS011;2808;51.240;6.794;2023-07-31T03:46:14;12.97;;;4.43;;
5569;SDS011;2808;51.240;6.794;2023-07-31T03:48:41;10.00;;;3.80;;
5569;SDS011;2808;51.240;6.794;2023-07-31T03:51:08;10.23;;;4.17;;
5569;SDS011;2808;51.240;6.794;2023-07-31T03:53:36;12.13;;;4.40;;
5569;SDS011;2808;51.240;6.794;2023-07-31T03:56:04;17.90;;;4.47;;
5569;SDS011;2808;51.240;6.794;2023-07-31T03:58:31;18.20;;;5.10;;
5569;SDS011;2808;51.240;6.794;2023-07-31T04:01:00;17.97;;;4.20;;
5569;SDS011;2808;51.240;6.794;2023-07-31T04:03:28;17.30;;;4.80;;
5569;SDS011;2808;51.240;6.794;2023-07-31T04:05:56;10.20;;;4.60;;
5569;SDS011;2808;51.240;6.794;2023-07-31T04:08:23;16.77;;;4.13;;
5569;SDS011;2808;51.240;6.794;2023-07-31T04:10:51;15.90;;;5.63;;
5569;SDS011;2808;51.240;6.794;2023-07-31T04:13:18;16.50;;;6.20;;
5569;SDS011;2808;51.240;6.794;2023-07-31T04:15:48;16.63;;;5.90;;
5569;SDS011;2808;51.240;6.794;2023-07-31T04:18:15;16.43;;;5.20;;
5569;SDS011;2808;51.240;6.794;2023-07-31T04:20:44;21.57;;;10.87;;
5569;SDS011;2808;51.240;6.794;2023-07-31T04:23:12;12.27;;;4.30;;
5569;SDS011;2808;51.240;6.794;2023-07-31T04:25:39;11.63;;;4.50;;
5569;SDS011;2808;51.240;6.794;2023-07-31T04:28:06;13.80;;;4.07;;
5569;SDS011;2808;51.240;6.794;2023-07-31T04:30:34;17.53;;;4.20;;
5569;SDS011;2808;51.240;6.794;2023-07-31T04:33:01;15.27;;;5.20;;
5569;SDS011;2808;51.240;6.794;2023-07-31T04:35:32;13.43;;;3.90;;
5569;SDS011;2808;51.240;6.794;2023-07-31T04:38:01;13.07;;;4.50;;
5569;SDS011;2808;51.240;6.794;2023-07-31T04:40:28;16.20;;;5.00;;
5569;SDS011;2808;51.240;6.794;2023-07-31T04:42:55;12.50;;;5.07;;
5569;SDS011;2808;51.240;6.794;2023-07-31T04:45:23;10.07;;;4.60;;
5569;SDS011;2808;51.240;6.794;2023-07-31T04:47:50;16.57;;;4.40;;
5569;SDS011;2808;51.240;6.794;2023-07-31T04:50:18;14.00;;;4.70;;
5569;SDS011;2808;51.240;6.794;2023-07-31T04:52:45;11.90;;;4.47;;
5569;SDS011;2808;51.240;6.794;2023-07-31T04:55:14;11.30;;;4.80;;
5569;SDS011;2808;51.240;6.794;2023-07-31T04:57:41;15.07;;;4.80;;
5569;SDS011;2808;51.240;6.794;2023-07-31T05:00:09;12.73;;;5.23;;
5569;SDS011;2808;51.240;6.794;2023-07-31T05:02:37;12.30;;;5.10;;
5569;SDS011;2808;51.240;6.794;2023-07-31T05:05:04;18.10;;;4.63;;
5569;SDS011;2808;51.240;6.794;2023-07-31T05:07:32;14.27;;;5.53;;
5569;SDS011;2808;51.240;6.794;2023-07-31T05:09:59;10.60;;;4.20;;
5569;SDS011;2808;51.240;6.794;2023-07-31T05:12:28;11.20;;;4.20;;
5569;SDS011;2808;51.240;6.794;2023-07-31T05:14:55;17.03;;;4.40;;
5569;SDS011;2808;51.240;6.794;2023-07-31T05:17:23;12.67;;;4.77;;
5569;SDS011;2808;51.240;6.794;2023-07-31T05:19:50;17.30;;;4.37;;
5569;SDS011;2808;51.240;6.794;2023-07-31T05:22:20;10.97;;;4.50;;
5569;SDS011;2808;51.240;6.794;2023-07-31T05:24:50;16.60;;;5.93;;
5569;SDS011;2808;51.240;6.794;2023-07-31T05:27:19;12.93;;;4.97;;
5569;SDS011;2808;51.240;6.794;2023-07-31T05:29:47;12.90;;;4.43;;
5569;SDS011;2808;51.240;6.794;2023-07-31T05:32:17;8.17;;;4.03;;
5569;SDS011;2808;51.240;6.794;2023-07-31T05:34:44;14.17;;;4.60;;
5569;SDS011;2808;51.240;6.794;2023-07-31T05:37:12;14.57;;;5.03;;
5569;SDS011;2808;51.240;6.794;2023-07-31T05:39:39;10.90;;;5.10;;
5569;SDS011;2808;51.240;6.794;2023-07-31T05:42:07;10.00;;;4.47;;
5569;SDS011;2808;51.240;6.794;2023-07-31T05:44:34;13.27;;;5.00;;
5569;SDS011;2808;51.240;6.794;2023-07-31T05:47:03;10.00;;;4.50;;
5569;SDS011;2808;51.240;6.794;2023-07-31T05:49:31;11.03;;;5.00;;
5569;SDS011;2808;51.240;6.794;2023-07-31T05:51:58;14.93;;;4.60;;
5569;SDS011;2808;51.240;6.794;2023-07-31T05:54:41;14.83;;;4.90;;
5569;SDS011;2808;51.240;6.794;2023-07-31T05:57:21;13.43;;;4.87;;
5569;SDS011;2808;51.240;6.794;2023-07-31T05:59:49;9.90;;;4.10;;
5569;SDS011;2808;51.240;6.794;2023-07-31T06:02:19;11.63;;;4.50;;
5569;SDS011;2808;51.240;6.794;2023-07-31T06:04:54;9.70;;;4.23;;
5569;SDS011;2808;51.240;6.794;2023-07-31T06:07:21;7.97;;;3.73;;
5569;SDS011;2808;51.240;6.794;2023-07-31T06:09:48;10.97;;;4.80;;
5569;SDS011;2808;51.240;6.794;2023-07-31T06:12:16;11.27;;;4.30;;
5569;SDS011;2808;51.240;6.794;2023-07-31T06:14:46;8.80;;;4.10;;
5569;SDS011;2808;51.240;6.794;2023-07-31T06:17:14;11.23;;;4.73;;
5569;SDS011;2808;51.240;6.794;2023-07-31T06:19:42;17.40;;;4.50;;
5569;SDS011;2808;51.240;6.794;2023-07-31T06:22:10;14.07;;;4.70;;
5569;SDS011;2808;51.240;6.794;2023-07-31T06:24:46;16.53;;;4.73;;
5569;SDS011;2808;51.240;6.794;2023-07-31T06:27:14;8.73;;;4.13;;
5569;SDS011;2808;51.240;6.794;2023-07-31T06:29:42;14.27;;;4.50;;
5569;SDS011;2808;51.240;6.794;2023-07-31T06:32:09;10.60;;;4.93;;
5569;SDS011;2808;51.240;6.794;2023-07-31T06:34:37;7.40;;;4.17;;
5569;SDS011;2808;51.240;6.794;2023-07-31T06:37:05;11.03;;;4.03;;
5569;SDS011;2808;51.240;6.794;2023-07-31T06:39:33;11.47;;;4.27;;
5569;SDS011;2808;51.240;6.794;2023-07-31T06:42:00;11.20;;;3.90;;
5569;SDS011;2808;51.240;6.794;2023-07-31T06:44:28;9.27;;;4.23;;
5569;SDS011;2808;51.240;6.794;2023-07-31T06:46:55;10.53;;;4.33;;
5569;SDS011;2808;51.240;6.794;2023-07-31T06:49:23;11.90;;;4.17;;
5569;SDS011;2808;51.240;6.794;2023-07-31T06:51:50;8.83;;;3.57;;
5569;SDS011;2808;51.240;6.794;2023-07-31T06:54:19;10.30;;;4.20;;
5569;SDS011;2808;51.240;6.794;2023-07-31T06:56:48;8.43;;;3.80;;
5569;SDS011;2808;51.240;6.794;2023-07-31T06:59:15;9.73;;;3.97;;
5569;SDS011;2808;51.240;6.794;2023-07-31T07:01:43;14.80;;;4.40;;
5569;SDS011;2808;51.240;6.794;2023-07-31T07:04:10;11.40;;;4.00;;
5569;SDS011;2808;51.240;6.794;2023-07-31T07:06:37;13.97;;;4.60;;
5569;SDS011;2808;51.240;6.794;2023-07-31T07:09:05;13.10;;;4.20;;
5569;SDS011;2808;51.240;6.794;2023-07-31T07:11:37;11.23;;;4.67;;
5569;SDS011;2808;51.240;6.794;2023-07-31T07:14:10;7.17;;;3.50;;
5569;SDS011;2808;51.240;6.794;2023-07-31T07:16:39;16.73;;;3.83;;
5569;SDS011;2808;51.240;6.794;2023-07-31T07:19:07;10.67;;;4.43;;
5569;SDS011;2808;51.240;6.794;2023-07-31T07:21:34;7.70;;;3.70;;
5569;SDS011;2808;51.240;6.794;2023-07-31T07:24:02;14.73;;;4.17;;
5569;SDS011;2808;51.240;6.794;2023-07-31T07:26:30;12.50;;;4.70;;
5569;SDS011;2808;51.240;6.794;2023-07-31T07:28:59;9.80;;;3.60;;
5569;SDS011;2808;51.240;6.794;2023-07-31T07:31:27;12.70;;;3.97;;
5569;SDS011;2808;51.240;6.794;2023-07-31T07:33:55;12.43;;;4.67;;
5569;SDS011;2808;51.240;6.794;2023-07-31T07:36:22;13.60;;;4.23;;
5569;SDS011;2808;51.240;6.794;2023-07-31T07:38:49;13.37;;;4.60;;
5569;SDS011;2808;51.240;6.794;2023-07-31T07:41:17;11.57;;;3.80;;
5569;SDS011;2808;51.240;6.794;2023-07-31T07:43:44;15.53;;;4.07;;
5569;SDS011;2808;51.240;6.794;2023-07-31T07:46:13;15.57;;;4.60;;
5569;SDS011;2808;51.240;6.794;2023-07-31T07:48:41;10.40;;;4.00;;
5569;SDS011;2808;51.240;6.794;2023-07-31T07:51:08;13.13;;;4.70;;
5569;SDS011;2808;51.240;6.794;2023-07-31T07:53:35;15.20;;;4.00;;
5569;SDS011;2808;51.240;6.794;2023-07-31T07:56:03;9.27;;;3.70;;
5569;SDS011;2808;51.240;6.794;2023-07-31T07:58:30;15.07;;;5.70;;
5569;SDS011;2808;51.240;6.794;2023-07-31T08:00:57;11.80;;;3.40;;
5569;SDS011;2808;51.240;6.794;2023-07-31T08:03:26;8.87;;;4.40;;
5569;SDS011;2808;51.240;6.794;2023-07-31T08:05:57;9.13;;;3.37;;
5569;SDS011;2808;51.240;6.794;2023-07-31T08:08:25;10.57;;;3.97;;
5569;SDS011;2808;51.240;6.794;2023-07-31T08:10:52;8.73;;;3.10;;
5569;SDS011;2808;51.240;6.794;2023-07-31T08:13:20;12.07;;;3.87;;
5569;SDS011;2808;51.240;6.794;2023-07-31T08:15:47;10.10;;;4.00;;
5569;SDS011;2808;51.240;6.794;2023-07-31T08:18:15;8.80;;;3.43;;
5569;SDS011;2808;51.240;6.794;2023-07-31T08:20:46;7.60;;;3.10;;
5569;SDS011;2808;51.240;6.794;2023-07-31T08:23:14;9.30;;;3.20;;
5569;SDS011;2808;51.240;6.794;2023-07-31T08:25:41;8.53;;;3.53;;
5569;SDS011;2808;51.240;6.794;2023-07-31T08:28:09;8.00;;;3.10;;
5569;SDS011;2808;51.240;6.794;2023-07-31T08:30:36;12.33;;;3.70;;
5569;SDS011;2808;51.240;6.794;2023-07-31T08:33:06;7.50;;;3.63;;
5569;SDS011;2808;51.240;6.794;2023-07-31T08:35:34;8.10;;;3.50;;
5569;SDS011;2808;51.240;6.794;2023-07-31T08:38:06;10.10;;;3.67;;
5569;SDS011;2808;51.240;6.794;2023-07-31T08:40:35;8.70;;;3.50;;
5569;SDS011;2808;51.240;6.794;2023-07-31T08:43:03;9.70;;;4.00;;
5569;SDS011;2808;51.240;6.794;2023-07-31T08:45:31;7.10;;;3.30;;
5569;SDS011;2808;51.240;6.794;2023-07-31T08:48:00;7.57;;;3.33;;
5569;SDS011;2808;51.240;6.794;2023-07-31T08:50:27;15.33;;;3.50;;
5569;SDS011;2808;51.240;6.794;2023-07-31T08:52:55;7.40;;;3.10;;
5569;SDS011;2808;51.240;6.794;2023-07-31T08:55:24;8.27;;;3.33;;
5569;SDS011;2808;51.240;6.794;2023-07-31T08:57:52;8.67;;;3.63;;
5569;SDS011;2808;51.240;6.794;2023-07-31T09:00:20;8.40;;;3.23;;
5569;SDS011;2808;51.240;6.794;2023-07-31T09:02:51;9.73;;;3.57;;
5569;SDS011;2808;51.240;6.794;2023-07-31T09:05:23;11.43;;;3.97;;
5569;SDS011;2808;51.240;6.794;2023-07-31T09:07:55;8.53;;;3.87;;
5569;SDS011;2808;51.240;6.794;2023-07-31T09:10:25;7.03;;;2.63;;
5569;SDS011;2808;51.240;6.794;2023-07-31T09:12:53;11.33;;;3.57;;
5569;SDS011;2808;51.240;6.794;2023-07-31T09:15:21;14.63;;;3.73;;
5569;SDS011;2808;51.240;6.794;2023-07-31T09:17:52;7.70;;;3.87;;
5569;SDS011;2808;51.240;6.794;2023-07-31T09:20:26;6.90;;;3.33;;
5569;SDS011;2808;51.240;6.794;2023-07-31T09:22:53;7.80;;;3.20;;
5569;SDS011;2808;51.240;6.794;2023-07-31T09:25:22;8.73;;;3.23;;
5569;SDS011;2808;51.240;6.794;2023-07-31T09:27:53;10.10;;;3.53;;
5569;SDS011;2808;51.240;6.794;2023-07-31T09:30:23;8.10;;;3.23;;
5569;SDS011;2808;51.240;6.794;2023-07-31T09:32:51;9.23;;;3.40;;
5569;SDS011;2808;51.240;6.794;2023-07-31T09:35:33;7.57;;;3.10;;
5569;SDS011;2808;51.240;6.794;2023-07-31T09:38:03;7.53;;;2.93;;
5569;SDS011;2808;51.240;6.794;2023-07-31T09:40:33;8.50;;;3.33;;
5569;SDS011;2808;51.240;6.794;2023-07-31T09:43:06;9.57;;;3.13;;
5569;SDS011;2808;51.240;6.794;2023-07-31T09:45:36;10.77;;;3.43;;
5569;SDS011;2808;51.240;6.794;2023-07-31T09:48:06;7.83;;;3.53;;
5569;SDS011;2808;51.240;6.794;2023-07-31T09:50:36;7.43;;;3.60;;
5569;SDS011;2808;51.240;6.794;2023-07-31T09:53:04;12.53;;;3.77;;
5569;SDS011;2808;51.240;6.794;2023-07-31T09:55:34;8.03;;;3.57;;
5569;SDS011;2808;51.240;6.794;2023-07-31T09:58:02;9.80;;;3.30;;
5569;SDS011;2808;51.240;6.794;2023-07-31T10:00:31;9.03;;;3.87;;
5569;SDS011;2808;51.240;6.794;2023-07-31T10:03:04;9.00;;;3.60;;
5569;SDS011;2808;51.240;6.794;2023-07-31T10:05:48;8.27;;;3.27;;
5569;SDS011;2808;51.240;6.794;2023-07-31T10:08:18;9.30;;;3.77;;
5569;SDS011;2808;51.240;6.794;2023-07-31T10:10:51;12.77;;;4.33;;
5569;SDS011;2808;51.240;6.794;2023-07-31T10:13:19;7.50;;;3.30;;
5569;SDS011;2808;51.240;6.794;2023-07-31T10:15:47;8.93;;;2.97;;
5569;SDS011;2808;51.240;6.794;2023-07-31T10:18:18;8.00;;;3.17;;
5569;SDS011;2808;51.240;6.794;2023-07-31T10:20:47;9.70;;;3.63;;
5569;SDS011;2808;51.240;6.794;2023-07-31T10:23:15;14.00;;;3.67;;
5569;SDS011;2808;51.240;6.794;2023-07-31T10:25:42;7.90;;;3.40;;
5569;SDS011;2808;51.240;6.794;2023-07-31T10:28:13;11.70;;;4.03;;
5569;SDS011;2808;51.240;6.794;2023-07-31T10:30:41;14.17;;;4.40;;
5569;SDS011;2808;51.240;6.794;2023-07-31T10:33:09;8.57;;;3.17;;
5569;SDS011;2808;51.240;6.794;2023-07-31T10:35:36;8.47;;;3.27;;
5569;SDS011;2808;51.240;6.794;2023-07-31T10:38:09;10.17;;;3.80;;
5569;SDS011;2808;51.240;6.794;2023-07-31T10:40:37;10.80;;;3.83;;
5569;SDS011;2808;51.240;6.794;2023-07-31T10:43:05;9.67;;;3.27;;
5569;SDS011;2808;51.240;6.794;2023-07-31T10:45:53;9.50;;;3.23;;
5569;SDS011;2808;51.240;6.794;2023-07-31T10:48:21;6.67;;;3.20;;
5569;SDS011;2808;51.240;6.794;2023-07-31T10:50:49;9.23;;;3.80;;
5569;SDS011;2808;51.240;6.794;2023-07-31T10:53:24;13.80;;;4.13;;
5569;SDS011;2808;51.240;6.794;2023-07-31T10:55:57;8.47;;;3.00;;
5569;SDS011;2808;51.240;6.794;2023-07-31T10:58:28;11.23;;;3.60;;
5569;SDS011;2808;51.240;6.794;2023-07-31T11:00:58;10.93;;;3.50;;
5569;SDS011;2808;51.240;6.794;2023-07-31T11:03:40;6.63;;;3.30;;
5569;SDS011;2808;51.240;6.794;2023-07-31T11:06:14;13.30;;;3.37;;
5569;SDS011;2808;51.240;6.794;2023-07-31T11:08:45;6.87;;;3.20;;
5569;SDS011;2808;51.240;6.794;2023-07-31T11:11:14;7.07;;;3.27;;
5569;SDS011;2808;51.240;6.794;2023-07-31T11:13:44;7.60;;;2.67;;
5569;SDS011;2808;51.240;6.794;2023-07-31T11:16:16;7.50;;;2.80;;
5569;SDS011;2808;51.240;6.794;2023-07-31T11:18:44;7.13;;;3.03;;
5569;SDS011;2808;51.240;6.794;2023-07-31T11:21:13;4.97;;;2.50;;
5569;SDS011;2808;51.240;6.794;2023-07-31T11:23:45;5.00;;;2.47;;
5569;SDS011;2808;51.240;6.794;2023-07-31T11:26:13;6.20;;;2.90;;
5569;SDS011;2808;51.240;6.794;2023-07-31T11:28:41;5.40;;;2.17;;
5569;SDS011;2808;51.240;6.794;2023-07-31T11:31:13;7.20;;;2.23;;
5569;SDS011;2808;51.240;6.794;2023-07-31T11:33:42;8.63;;;1.97;;
5569;SDS011;2808;51.240;6.794;2023-07-31T11:36:14;5.80;;;1.87;;
5569;SDS011;2808;51.240;6.794;2023-07-31T11:38:42;8.57;;;2.07;;
5569;SDS011;2808;51.240;6.794;2023-07-31T11:41:10;6.73;;;2.30;;
5569;SDS011;2808;51.240;6.794;2023-07-31T11:43:39;5.90;;;2.20;;
5569;SDS011;2808;51.240;6.794;2023-07-31T11:46:10;6.13;;;2.30;;
5569;SDS011;2808;51.240;6.794;2023-07-31T11:48:41;6.10;;;2.10;;
5569;SDS011;2808;51.240;6.794;2023-07-31T11:51:09;7.03;;;2.20;;
5569;SDS011;2808;51.240;6.794;2023-07-31T11:53:40;6.73;;;2.13;;
5569;SDS011;2808;51.240;6.794;2023-07-31T11:56:10;7.17;;;2.20;;
5569;SDS011;2808;51.240;6.794;2023-07-31T11:58:40;11.43;;;2.30;;
5569;SDS011;2808;51.240;6.794;2023-07-31T12:01:09;4.77;;;2.00;;
5569;SDS011;2808;51.240;6.794;2023-07-31T12:03:37;8.50;;;1.93;;
5569;SDS011;2808;51.240;6.794;2023-07-31T12:06:07;4.13;;;1.90;;
5569;SDS011;2808;51.240;6.794;2023-07-31T12:08:36;4.93;;;2.20;;
5569;SDS011;2808;51.240;6.794;2023-07-31T12:11:04;9.83;;;2.50;;
5569;SDS011;2808;51.240;6.794;2023-07-31T12:13:32;4.47;;;1.83;;
5569;SDS011;2808;51.240;6.794;2023-07-31T12:16:01;5.63;;;2.03;;
5569;SDS011;2808;51.240;6.794;2023-07-31T12:18:29;5.40;;;2.77;;
5569;SDS011;2808;51.240;6.794;2023-07-31T12:21:00;6.03;;;2.23;;
5569;SDS011;2808;51.240;6.794;2023-07-31T12:23:32;5.43;;;2.30;;
5569;SDS011;2808;51.240;6.794;2023-07-31T12:26:01;5.50;;;2.80;;
5569;SDS011;2808;51.240;6.794;2023-07-31T12:28:29;6.97;;;2.03;;
5569;SDS011;2808;51.240;6.794;2023-07-31T12:31:00;4.10;;;2.30;;
5569;SDS011;2808;51.240;6.794;2023-07-31T12:33:30;4.83;;;2.50;;
5569;SDS011;2808;51.240;6.794;2023-07-31T12:36:00;4.60;;;1.70;;
5569;SDS011;2808;51.240;6.794;2023-07-31T12:38:28;5.43;;;2.37;;
5569;SDS011;2808;51.240;6.794;2023-07-31T12:40:57;5.10;;;2.10;;
5569;SDS011;2808;51.240;6.794;2023-07-31T12:43:25;4.77;;;2.00;;
5569;SDS011;2808;51.240;6.794;2023-07-31T12:45:55;5.97;;;2.53;;
5569;SDS011;2808;51.240;6.794;2023-07-31T12:48:23;5.47;;;2.30;;
5569;SDS011;2808;51.240;6.794;2023-07-31T12:50:50;7.40;;;2.40;;
5569;SDS011;2808;51.240;6.794;2023-07-31T12:53:18;5.90;;;2.70;;
5569;SDS011;2808;51.240;6.794;2023-07-31T12:55:45;6.97;;;2.63;;
5569;SDS011;2808;51.240;6.794;2023-07-31T12:58:15;5.53;;;2.60;;
5569;SDS011;2808;51.240;6.794;2023-07-31T13:00:42;6.27;;;2.20;;
5569;SDS011;2808;51.240;6.794;2023-07-31T13:03:10;5.90;;;2.23;;
5569;SDS011;2808;51.240;6.794;2023-07-31T13:05:37;7.40;;;2.57;;
5569;SDS011;2808;51.240;6.794;2023-07-31T13:08:08;7.03;;;2.50;;
5569;SDS011;2808;51.240;6.794;2023-07-31T13:10:36;5.20;;;2.53;;
5569;SDS011;2808;51.240;6.794;2023-07-31T13:13:04;7.23;;;2.97;;
5569;SDS011;2808;51.240;6.794;2023-07-31T13:15:32;9.00;;;2.43;;
5569;SDS011;2808;51.240;6.794;2023-07-31T13:18:00;5.27;;;2.70;;
5569;SDS011;2808;51.240;6.794;2023-07-31T13:20:27;7.70;;;3.07;;
5569;SDS011;2808;51.240;6.794;2023-07-31T13:22:55;7.50;;;3.50;;
5569;SDS011;2808;51.240;6.794;2023-07-31T13:25:22;6.20;;;2.70;;
5569;SDS011;2808;51.240;6.794;2023-07-31T13:27:50;6.47;;;3.23;;
5569;SDS011;2808;51.240;6.794;2023-07-31T13:30:17;7.17;;;3.60;;
5569;SDS011;2808;51.240;6.794;2023-07-31T13:32:46;6.30;;;2.93;;
5569;SDS011;2808;51.240;6.794;2023-07-31T13:35:14;6.13;;;2.90;;
5569;SDS011;2808;51.240;6.794;2023-07-31T13:37:42;7.73;;;3.20;;
5569;SDS011;2808;51.240;6.794;2023-07-31T13:40:10;6.43;;;3.10;;
5569;SDS011;2808;51.240;6.794;2023-07-31T13:42:37;8.50;;;3.10;;
5569;SDS011;2808;51.240;6.794;2023-07-31T13:45:05;9.00;;;3.20;;
5569;SDS011;2808;51.240;6.794;2023-07-31T13:47:33;8.17;;;3.33;;
5569;SDS011;2808;51.240;6.794;2023-07-31T13:50:03;8.60;;;3.10;;
5569;SDS011;2808;51.240;6.794;2023-07-31T13:52:31;8.43;;;3.63;;
5569;SDS011;2808;51.240;6.794;2023-07-31T13:54:59;6.60;;;3.07;;
5569;SDS011;2808;51.240;6.794;2023-07-31T13:57:26;8.17;;;3.30;;
5569;SDS011;2808;51.240;6.794;2023-07-31T13:59:54;7.43;;;3.57;;
5569;SDS011;2808;51.240;6.794;2023-07-31T14:02:21;6.30;;;3.20;;
5569;SDS011;2808;51.240;6.794;2023-07-31T14:04:49;6.43;;;3.10;;
5569;SDS011;2808;51.240;6.794;2023-07-31T14:07:18;6.60;;;3.20;;
5569;SDS011;2808;51.240;6.794;2023-07-31T14:09:46;5.80;;;2.93;;
5569;SDS011;2808;51.240;6.794;2023-07-31T14:12:13;6.50;;;3.20;;
5569;SDS011;2808;51.240;6.794;2023-07-31T14:14:50;7.63;;;2.90;;
5569;SDS011;2808;51.240;6.794;2023-07-31T14:17:25;9.57;;;3.10;;
5569;SDS011;2808;51.240;6.794;2023-07-31T14:19:52;8.40;;;3.40;;
5569;SDS011;2808;51.240;6.794;2023-07-31T14:22:28;5.83;;;2.93;;
5569;SDS011;2808;51.240;6.794;2023-07-31T14:24:56;6.60;;;3.20;;
5569;SDS011;2808;51.240;6.794;2023-07-31T14:27:27;6.67;;;3.20;;
5569;SDS011;2808;51.240;6.794;2023-07-31T14:29:55;7.97;;;2.93;;
5569;SDS011;2808;51.240;6.794;2023-07-31T14:32:22;6.93;;;2.80;;
5569;SDS011;2808;51.240;6.794;2023-07-31T14:34:50;8.00;;;2.83;;
5569;SDS011;2808;51.240;6.794;2023-07-31T14:37:18;7.03;;;3.10;;
5569;SDS011;2808;51.240;6.794;2023-07-31T14:39:47;4.97;;;2.80;;
5569;SDS011;2808;51.240;6.794;2023-07-31T14:42:14;7.53;;;2.87;;
5569;SDS011;2808;51.240;6.794;2023-07-31T14:44:44;6.47;;;3.10;;
5569;SDS011;2808;51.240;6.794;2023-07-31T14:47:12;8.53;;;3.60;;
5569;SDS011;2808;51.240;6.794;2023-07-31T14:49:40;7.27;;;3.00;;
5569;SDS011;2808;51.240;6.794;2023-07-31T14:52:07;6.20;;;3.30;;
5569;SDS011;2808;51.240;6.794;2023-07-31T14:54:35;10.10;;;5.37;;
5569;SDS011;2808;51.240;6.794;2023-07-31T14:57:04;13.77;;;6.27;;
5569;SDS011;2808;51.240;6.794;2023-07-31T14:59:32;13.40;;;5.37;;
5569;SDS011;2808;51.240;6.794;2023-07-31T15:01:59;9.70;;;4.00;;
5569;SDS011;2808;51.240;6.794;2023-07-31T15:04:29;8.00;;;3.53;;
5569;SDS011;2808;51.240;6.794;2023-07-31T15:07:02;11.03;;;4.73;;
5569;SDS011;2808;51.240;6.794;2023-07-31T15:09:34;13.60;;;7.03;;
5569;SDS011;2808;51.240;6.794;2023-07-31T15:12:01;9.73;;;4.13;;
5569;SDS011;2808;51.240;6.794;2023-07-31T15:14:38;8.20;;;4.53;;
5569;SDS011;2808;51.240;6.794;2023-07-31T15:17:06;8.40;;;4.20;;